sensor_id;sensor_type;location;lat;lon;timestamp;P1;durP1;ratioP1;P2;durP2;ratioP2
1682;SDS011;13252;53.596;10.060;2023-02-01T00:01:11;20.50;;;4.00;;
1682;SDS011;13252;53.596;10.060;2023-02-01T00:03:38;23.20;;;3.60;;
1682;SDS011;13252;53.596;10.060;2023-02-01T00:06:06;27.70;;;4.10;;
1682;SDS011;13252;53.596;10.060;2023-02-01T00:08:34;28.23;;;4.57;;
1682;SDS011;13252;53.596;10.060;2023-02-01T00:11:04;31.33;;;5.07;;
1682;SDS011;13252;53.596;10.060;2023-02-01T00:13:33;25.80;;;4.53;;
1682;SDS011;13252;53.596;10.060;2023-02-01T00:16:04;26.50;;;5.03;;
1682;SDS011;13252;53.596;10.060;2023-02-01T00:18:33;37.17;;;5.73;;
1682;SDS011;13252;53.596;10.060;2023-02-01T00:21:00;22.30;;;4.37;;
1682;SDS011;13252;53.596;10.060;2023-02-01T00:23:31;26.87;;;5.47;;
1682;SDS011;13252;53.596;10.060;2023-02-01T00:26:00;26.70;;;4.27;;
1682;SDS011;13252;53.596;10.060;2023-02-01T00:28:30;23.37;;;4.50;;
1682;SDS011;13252;53.596;10.060;2023-02-01T00:30:58;29.60;;;5.67;;
1682;SDS011;13252;53.596;10.060;2023-02-01T00:33:26;26.83;;;4.50;;
1682;SDS011;13252;53.596;10.060;2023-02-01T00:35:56;29.07;;;6.30;;
1682;SDS011;13252;53.596;10.060;2023-02-01T00:38:24;36.70;;;7.17;;
1682;SDS011;13252;53.596;10.060;2023-02-01T00:40:52;34.93;;;4.93;;
1682;SDS011;13252;53.596;10.060;2023-02-01T00:43:20;35.43;;;5.07;;
1682;SDS011;13252;53.596;10.060;2023-02-01T00:45:49;33.43;;;4.93;;
1682;SDS011;13252;53.596;10.060;2023-02-01T00:48:17;19.40;;;4.60;;
1682;SDS011;13252;53.596;10.060;2023-02-01T00:50:45;27.57;;;7.50;;
1682;SDS011;13252;53.596;10.060;2023-02-01T00:53:13;35.17;;;6.27;;
1682;SDS011;13252;53.596;10.060;2023-02-01T00:55:44;34.47;;;7.13;;
1682;SDS011;13252;53.596;10.060;2023-02-01T00:58:12;25.13;;;5.90;;
1682;SDS011;13252;53.596;10.060;2023-02-01T01:00:40;41.90;;;6.90;;
1682;SDS011;13252;53.596;10.060;2023-02-01T01:03:09;26.87;;;6.03;;
1682;SDS011;13252;53.596;10.060;2023-02-01T01:05:44;37.13;;;6.23;;
1682;SDS011;13252;53.596;10.060;2023-02-01T01:08:13;39.73;;;5.70;;
1682;SDS011;13252;53.596;10.060;2023-02-01T01:10:41;35.20;;;5.40;;
1682;SDS011;13252;53.596;10.060;2023-02-01T01:13:10;23.13;;;6.23;;
1682;SDS011;13252;53.596;10.060;2023-02-01T01:15:39;31.50;;;5.70;;
1682;SDS011;13252;53.596;10.060;2023-02-01T01:18:07;36.07;;;7.47;;
1682;SDS011;13252;53.596;10.060;2023-02-01T01:20:37;30.23;;;5.77;;
1682;SDS011;13252;53.596;10.060;2023-02-01T01:23:06;38.43;;;5.60;;
1682;SDS011;13252;53.596;10.060;2023-02-01T01:25:36;34.43;;;6.63;;
1682;SDS011;13252;53.596;10.060;2023-02-01T01:28:06;37.40;;;8.50;;
1682;SDS011;13252;53.596;10.060;2023-02-01T01:30:34;37.63;;;6.47;;
1682;SDS011;13252;53.596;10.060;2023-02-01T01:33:02;35.83;;;6.47;;
1682;SDS011;13252;53.596;10.060;2023-02-01T01:35:31;31.20;;;6.43;;
1682;SDS011;13252;53.596;10.060;2023-02-01T01:38:00;29.00;;;5.40;;
1682;SDS011;13252;53.596;10.060;2023-02-01T01:40:29;32.50;;;6.20;;
1682;SDS011;13252;53.596;10.060;2023-02-01T01:42:58;28.23;;;5.70;;
1682;SDS011;13252;53.596;10.060;2023-02-01T01:45:27;34.37;;;6.83;;
1682;SDS011;13252;53.596;10.060;2023-02-01T01:47:57;33.13;;;7.57;;
1682;SDS011;13252;53.596;10.060;2023-02-01T01:50:28;34.63;;;6.57;;
1682;SDS011;13252;53.596;10.060;2023-02-01T01:53:01;45.93;;;6.10;;
1682;SDS011;13252;53.596;10.060;2023-02-01T01:55:31;38.70;;;5.90;;
1682;SDS011;13252;53.596;10.060;2023-02-01T01:58:01;32.53;;;6.93;;
1682;SDS011;13252;53.596;10.060;2023-02-01T02:00:31;38.77;;;6.90;;
1682;SDS011;13252;53.596;10.060;2023-02-01T02:03:00;30.93;;;6.33;;
1682;SDS011;13252;53.596;10.060;2023-02-01T02:05:31;23.10;;;5.80;;
1682;SDS011;13252;53.596;10.060;2023-02-01T02:08:00;29.97;;;5.47;;
1682;SDS011;13252;53.596;10.060;2023-02-01T02:10:28;30.33;;;5.70;;
1682;SDS011;13252;53.596;10.060;2023-02-01T02:13:10;44.20;;;6.90;;
1682;SDS011;13252;53.596;10.060;2023-02-01T02:15:40;26.30;;;5.63;;
1682;SDS011;13252;53.596;10.060;2023-02-01T02:18:10;23.57;;;5.53;;
1682;SDS011;13252;53.596;10.060;2023-02-01T02:20:46;24.93;;;6.00;;
1682;SDS011;13252;53.596;10.060;2023-02-01T02:23:49;38.13;;;5.47;;
1682;SDS011;13252;53.596;10.060;2023-02-01T02:26:56;30.27;;;5.87;;
1682;SDS011;13252;53.596;10.060;2023-02-01T02:32:58;32.93;;;6.43;;
1682;SDS011;13252;53.596;10.060;2023-02-01T02:35:52;44.33;;;7.93;;
1682;SDS011;13252;53.596;10.060;2023-02-01T02:38:26;34.00;;;6.93;;
1682;SDS011;13252;53.596;10.060;2023-02-01T02:40:59;29.87;;;5.60;;
1682;SDS011;13252;53.596;10.060;2023-02-01T02:43:35;28.47;;;5.40;;
1682;SDS011;13252;53.596;10.060;2023-02-01T02:46:22;35.57;;;6.10;;
1682;SDS011;13252;53.596;10.060;2023-02-01T02:49:11;37.57;;;6.23;;
1682;SDS011;13252;53.596;10.060;2023-02-01T02:51:41;33.03;;;8.83;;
1682;SDS011;13252;53.596;10.060;2023-02-01T02:54:30;25.47;;;5.67;;
1682;SDS011;13252;53.596;10.060;2023-02-01T02:57:18;25.50;;;5.50;;
1682;SDS011;13252;53.596;10.060;2023-02-01T03:00:05;35.13;;;8.83;;
1682;SDS011;13252;53.596;10.060;2023-02-01T03:02:52;26.50;;;5.10;;
1682;SDS011;13252;53.596;10.060;2023-02-01T03:05:41;37.90;;;6.40;;
1682;SDS011;13252;53.596;10.060;2023-02-01T03:08:12;29.60;;;6.70;;
1682;SDS011;13252;53.596;10.060;2023-02-01T03:10:47;41.93;;;6.93;;
1682;SDS011;13252;53.596;10.060;2023-02-01T03:13:19;27.97;;;6.50;;
1682;SDS011;13252;53.596;10.060;2023-02-01T03:15:53;32.60;;;6.27;;
1682;SDS011;13252;53.596;10.060;2023-02-01T03:18:28;32.50;;;6.43;;
1682;SDS011;13252;53.596;10.060;2023-02-01T03:21:00;37.63;;;6.57;;
1682;SDS011;13252;53.596;10.060;2023-02-01T03:23:32;29.53;;;6.50;;
1682;SDS011;13252;53.596;10.060;2023-02-01T03:26:01;33.87;;;6.27;;
1682;SDS011;13252;53.596;10.060;2023-02-01T03:28:30;30.53;;;6.10;;
1682;SDS011;13252;53.596;10.060;2023-02-01T03:30:59;26.30;;;5.27;;
1682;SDS011;13252;53.596;10.060;2023-02-01T03:33:28;29.27;;;6.10;;
1682;SDS011;13252;53.596;10.060;2023-02-01T03:36:03;28.93;;;7.70;;
1682;SDS011;13252;53.596;10.060;2023-02-01T03:38:37;17.40;;;3.40;;
1682;SDS011;13252;53.596;10.060;2023-02-01T03:41:11;24.27;;;5.23;;
1682;SDS011;13252;53.596;10.060;2023-02-01T03:43:44;14.57;;;2.80;;
1682;SDS011;13252;53.596;10.060;2023-02-01T03:46:17;18.97;;;3.97;;
1682;SDS011;13252;53.596;10.060;2023-02-01T03:48:51;18.00;;;4.50;;
1682;SDS011;13252;53.596;10.060;2023-02-01T03:51:21;15.53;;;3.10;;
1682;SDS011;13252;53.596;10.060;2023-02-01T03:53:50;13.57;;;2.40;;
1682;SDS011;13252;53.596;10.060;2023-02-01T03:56:19;24.90;;;3.37;;
1682;SDS011;13252;53.596;10.060;2023-02-01T03:58:49;14.63;;;3.13;;
1682;SDS011;13252;53.596;10.060;2023-02-01T04:01:30;30.97;;;4.13;;
1682;SDS011;13252;53.596;10.060;2023-02-01T04:03:59;21.30;;;3.97;;
1682;SDS011;13252;53.596;10.060;2023-02-01T04:06:29;31.40;;;4.43;;
1682;SDS011;13252;53.596;10.060;2023-02-01T04:09:00;24.10;;;4.40;;
1682;SDS011;13252;53.596;10.060;2023-02-01T04:11:28;15.87;;;3.67;;
1682;SDS011;13252;53.596;10.060;2023-02-01T04:13:56;23.07;;;4.07;;
1682;SDS011;13252;53.596;10.060;2023-02-01T04:16:23;20.50;;;4.50;;
1682;SDS011;13252;53.596;10.060;2023-02-01T04:18:51;16.17;;;4.30;;
1682;SDS011;13252;53.596;10.060;2023-02-01T04:21:19;22.37;;;3.80;;
1682;SDS011;13252;53.596;10.060;2023-02-01T04:23:48;22.23;;;3.90;;
1682;SDS011;13252;53.596;10.060;2023-02-01T04:26:16;18.57;;;4.77;;
1682;SDS011;13252;53.596;10.060;2023-02-01T04:28:45;26.63;;;4.10;;
1682;SDS011;13252;53.596;10.060;2023-02-01T04:31:13;32.77;;;6.30;;
1682;SDS011;13252;53.596;10.060;2023-02-01T04:33:42;27.80;;;4.73;;
1682;SDS011;13252;53.596;10.060;2023-02-01T04:36:10;24.23;;;4.03;;
1682;SDS011;13252;53.596;10.060;2023-02-01T04:38:38;25.47;;;4.00;;
1682;SDS011;13252;53.596;10.060;2023-02-01T04:41:06;24.10;;;4.00;;
1682;SDS011;13252;53.596;10.060;2023-02-01T04:43:34;23.03;;;4.30;;
1682;SDS011;13252;53.596;10.060;2023-02-01T04:46:02;16.83;;;4.57;;
1682;SDS011;13252;53.596;10.060;2023-02-01T04:48:31;26.43;;;3.77;;
1682;SDS011;13252;53.596;10.060;2023-02-01T04:50:58;20.27;;;3.20;;
1682;SDS011;13252;53.596;10.060;2023-02-01T04:53:26;11.07;;;2.70;;
1682;SDS011;13252;53.596;10.060;2023-02-01T04:55:54;19.00;;;3.13;;
1682;SDS011;13252;53.596;10.060;2023-02-01T04:58:23;12.63;;;2.10;;
1682;SDS011;13252;53.596;10.060;2023-02-01T05:00:51;16.27;;;4.07;;
1682;SDS011;13252;53.596;10.060;2023-02-01T05:03:18;14.97;;;2.77;;
1682;SDS011;13252;53.596;10.060;2023-02-01T05:05:46;16.53;;;3.63;;
1682;SDS011;13252;53.596;10.060;2023-02-01T05:08:15;12.70;;;2.60;;
1682;SDS011;13252;53.596;10.060;2023-02-01T05:10:44;20.63;;;3.10;;
1682;SDS011;13252;53.596;10.060;2023-02-01T05:13:12;9.77;;;1.80;;
1682;SDS011;13252;53.596;10.060;2023-02-01T05:15:58;12.80;;;2.90;;
1682;SDS011;13252;53.596;10.060;2023-02-01T05:18:26;3.87;;;1.33;;
1682;SDS011;13252;53.596;10.060;2023-02-01T05:20:54;3.90;;;1.40;;
1682;SDS011;13252;53.596;10.060;2023-02-01T05:23:22;4.90;;;1.70;;
1682;SDS011;13252;53.596;10.060;2023-02-01T05:25:49;7.03;;;1.30;;
1682;SDS011;13252;53.596;10.060;2023-02-01T05:28:17;3.73;;;1.30;;
1682;SDS011;13252;53.596;10.060;2023-02-01T05:30:45;4.40;;;1.20;;
1682;SDS011;13252;53.596;10.060;2023-02-01T05:33:14;5.13;;;1.30;;
1682;SDS011;13252;53.596;10.060;2023-02-01T05:35:41;6.57;;;1.57;;
1682;SDS011;13252;53.596;10.060;2023-02-01T05:38:09;2.60;;;0.80;;
1682;SDS011;13252;53.596;10.060;2023-02-01T05:40:37;3.87;;;1.40;;
1682;SDS011;13252;53.596;10.060;2023-02-01T05:43:04;4.67;;;1.50;;
1682;SDS011;13252;53.596;10.060;2023-02-01T05:45:32;4.40;;;1.23;;
1682;SDS011;13252;53.596;10.060;2023-02-01T05:48:00;4.67;;;1.10;;
1682;SDS011;13252;53.596;10.060;2023-02-01T05:50:28;5.60;;;1.37;;
1682;SDS011;13252;53.596;10.060;2023-02-01T05:52:56;4.27;;;1.00;;
1682;SDS011;13252;53.596;10.060;2023-02-01T05:55:24;6.07;;;1.37;;
1682;SDS011;13252;53.596;10.060;2023-02-01T05:57:52;3.20;;;1.33;;
1682;SDS011;13252;53.596;10.060;2023-02-01T06:00:20;2.87;;;1.30;;
1682;SDS011;13252;53.596;10.060;2023-02-01T06:02:49;3.93;;;1.30;;
1682;SDS011;13252;53.596;10.060;2023-02-01T06:05:17;3.00;;;0.70;;
1682;SDS011;13252;53.596;10.060;2023-02-01T06:07:46;2.03;;;0.40;;
1682;SDS011;13252;53.596;10.060;2023-02-01T06:10:14;2.70;;;1.13;;
1682;SDS011;13252;53.596;10.060;2023-02-01T06:12:42;2.50;;;1.30;;
1682;SDS011;13252;53.596;10.060;2023-02-01T06:15:13;3.60;;;1.17;;
1682;SDS011;13252;53.596;10.060;2023-02-01T06:17:41;2.73;;;1.13;;
1682;SDS011;13252;53.596;10.060;2023-02-01T06:20:11;2.53;;;1.07;;
1682;SDS011;13252;53.596;10.060;2023-02-01T06:22:40;2.90;;;1.10;;
1682;SDS011;13252;53.596;10.060;2023-02-01T06:25:10;4.70;;;1.13;;
1682;SDS011;13252;53.596;10.060;2023-02-01T06:27:38;9.67;;;1.20;;
1682;SDS011;13252;53.596;10.060;2023-02-01T06:30:06;7.03;;;2.17;;
1682;SDS011;13252;53.596;10.060;2023-02-01T06:32:35;8.27;;;1.30;;
1682;SDS011;13252;53.596;10.060;2023-02-01T06:35:03;7.23;;;2.07;;
1682;SDS011;13252;53.596;10.060;2023-02-01T06:37:32;6.77;;;1.50;;
1682;SDS011;13252;53.596;10.060;2023-02-01T06:40:00;9.10;;;1.87;;
1682;SDS011;13252;53.596;10.060;2023-02-01T06:42:29;7.80;;;2.10;;
1682;SDS011;13252;53.596;10.060;2023-02-01T06:44:57;6.50;;;1.53;;
1682;SDS011;13252;53.596;10.060;2023-02-01T06:47:25;10.17;;;2.07;;
1682;SDS011;13252;53.596;10.060;2023-02-01T06:49:53;15.93;;;2.10;;
1682;SDS011;13252;53.596;10.060;2023-02-01T06:52:20;11.10;;;2.50;;
1682;SDS011;13252;53.596;10.060;2023-02-01T06:54:48;18.73;;;2.70;;
1682;SDS011;13252;53.596;10.060;2023-02-01T06:57:16;19.97;;;3.10;;
1682;SDS011;13252;53.596;10.060;2023-02-01T06:59:45;13.30;;;2.20;;
1682;SDS011;13252;53.596;10.060;2023-02-01T07:02:12;11.10;;;2.47;;
1682;SDS011;13252;53.596;10.060;2023-02-01T07:04:40;21.60;;;3.20;;
1682;SDS011;13252;53.596;10.060;2023-02-01T07:07:08;19.97;;;3.30;;
1682;SDS011;13252;53.596;10.060;2023-02-01T07:09:36;23.50;;;4.90;;
1682;SDS011;13252;53.596;10.060;2023-02-01T07:12:04;23.60;;;5.00;;
1682;SDS011;13252;53.596;10.060;2023-02-01T07:14:32;10.13;;;3.07;;
1682;SDS011;13252;53.596;10.060;2023-02-01T07:17:01;23.77;;;4.07;;
1682;SDS011;13252;53.596;10.060;2023-02-01T07:19:29;22.40;;;4.10;;
1682;SDS011;13252;53.596;10.060;2023-02-01T07:21:56;12.37;;;2.93;;
1682;SDS011;13252;53.596;10.060;2023-02-01T07:24:24;12.63;;;3.47;;
1682;SDS011;13252;53.596;10.060;2023-02-01T07:26:52;24.43;;;6.17;;
1682;SDS011;13252;53.596;10.060;2023-02-01T07:29:20;25.63;;;4.03;;
1682;SDS011;13252;53.596;10.060;2023-02-01T07:31:47;28.27;;;4.80;;
1682;SDS011;13252;53.596;10.060;2023-02-01T07:34:16;28.43;;;4.63;;
1682;SDS011;13252;53.596;10.060;2023-02-01T07:36:44;36.90;;;5.67;;
1682;SDS011;13252;53.596;10.060;2023-02-01T07:39:12;17.00;;;3.80;;
1682;SDS011;13252;53.596;10.060;2023-02-01T07:41:39;21.53;;;4.63;;
1682;SDS011;13252;53.596;10.060;2023-02-01T07:44:11;21.47;;;3.40;;
1682;SDS011;13252;53.596;10.060;2023-02-01T07:46:39;17.43;;;3.03;;
1682;SDS011;13252;53.596;10.060;2023-02-01T07:49:07;12.30;;;2.90;;
1682;SDS011;13252;53.596;10.060;2023-02-01T07:51:36;12.67;;;2.37;;
1682;SDS011;13252;53.596;10.060;2023-02-01T07:54:04;17.63;;;3.70;;
1682;SDS011;13252;53.596;10.060;2023-02-01T07:56:32;38.80;;;5.47;;
1682;SDS011;13252;53.596;10.060;2023-02-01T07:58:59;12.83;;;3.63;;
1682;SDS011;13252;53.596;10.060;2023-02-01T08:01:28;27.53;;;4.40;;
1682;SDS011;13252;53.596;10.060;2023-02-01T08:03:57;24.60;;;5.30;;
1682;SDS011;13252;53.596;10.060;2023-02-01T08:06:26;26.77;;;5.20;;
1682;SDS011;13252;53.596;10.060;2023-02-01T08:08:57;26.97;;;4.87;;
1682;SDS011;13252;53.596;10.060;2023-02-01T08:11:26;38.53;;;6.23;;
1682;SDS011;13252;53.596;10.060;2023-02-01T08:13:54;29.70;;;5.30;;
1682;SDS011;13252;53.596;10.060;2023-02-01T08:16:22;38.00;;;5.63;;
1682;SDS011;13252;53.596;10.060;2023-02-01T08:18:51;43.13;;;5.90;;
1682;SDS011;13252;53.596;10.060;2023-02-01T08:21:21;35.73;;;5.53;;
1682;SDS011;13252;53.596;10.060;2023-02-01T08:23:50;29.17;;;4.07;;
1682;SDS011;13252;53.596;10.060;2023-02-01T08:26:21;39.20;;;6.73;;
1682;SDS011;13252;53.596;10.060;2023-02-01T08:28:51;39.70;;;6.60;;
1682;SDS011;13252;53.596;10.060;2023-02-01T08:31:21;34.07;;;5.13;;
1682;SDS011;13252;53.596;10.060;2023-02-01T08:33:51;34.53;;;6.47;;
1682;SDS011;13252;53.596;10.060;2023-02-01T08:36:20;40.20;;;5.57;;
1682;SDS011;13252;53.596;10.060;2023-02-01T08:38:48;27.13;;;5.33;;
1682;SDS011;13252;53.596;10.060;2023-02-01T08:41:17;37.23;;;4.50;;
1682;SDS011;13252;53.596;10.060;2023-02-01T08:43:48;21.23;;;4.03;;
1682;SDS011;13252;53.596;10.060;2023-02-01T08:46:16;21.43;;;3.83;;
1682;SDS011;13252;53.596;10.060;2023-02-01T08:48:45;30.83;;;7.83;;
1682;SDS011;13252;53.596;10.060;2023-02-01T08:51:14;27.77;;;4.10;;
1682;SDS011;13252;53.596;10.060;2023-02-01T08:53:44;23.07;;;3.67;;
1682;SDS011;13252;53.596;10.060;2023-02-01T08:56:13;16.57;;;3.20;;
1682;SDS011;13252;53.596;10.060;2023-02-01T08:58:41;20.17;;;3.63;;
1682;SDS011;13252;53.596;10.060;2023-02-01T09:01:12;20.57;;;3.03;;
1682;SDS011;13252;53.596;10.060;2023-02-01T09:03:42;22.33;;;3.80;;
1682;SDS011;13252;53.596;10.060;2023-02-01T09:06:11;15.63;;;3.30;;
1682;SDS011;13252;53.596;10.060;2023-02-01T09:08:40;21.20;;;3.70;;
1682;SDS011;13252;53.596;10.060;2023-02-01T09:11:10;46.10;;;6.67;;
1682;SDS011;13252;53.596;10.060;2023-02-01T09:13:40;26.60;;;4.97;;
1682;SDS011;13252;53.596;10.060;2023-02-01T09:16:08;23.43;;;4.27;;
1682;SDS011;13252;53.596;10.060;2023-02-01T09:18:37;27.60;;;5.60;;
1682;SDS011;13252;53.596;10.060;2023-02-01T09:21:25;32.13;;;4.53;;
1682;SDS011;13252;53.596;10.060;2023-02-01T09:23:54;30.37;;;4.87;;
1682;SDS011;13252;53.596;10.060;2023-02-01T09:26:22;42.27;;;4.80;;
1682;SDS011;13252;53.596;10.060;2023-02-01T09:28:57;17.87;;;4.63;;
1682;SDS011;13252;53.596;10.060;2023-02-01T09:31:25;24.73;;;5.40;;
1682;SDS011;13252;53.596;10.060;2023-02-01T09:33:55;38.00;;;5.70;;
1682;SDS011;13252;53.596;10.060;2023-02-01T09:36:23;29.13;;;5.20;;
1682;SDS011;13252;53.596;10.060;2023-02-01T09:38:51;25.73;;;5.07;;
1682;SDS011;13252;53.596;10.060;2023-02-01T09:41:24;28.57;;;5.67;;
1682;SDS011;13252;53.596;10.060;2023-02-01T09:43:59;32.53;;;4.93;;
1682;SDS011;13252;53.596;10.060;2023-02-01T09:46:31;28.13;;;4.60;;
1682;SDS011;13252;53.596;10.060;2023-02-01T09:49:03;35.13;;;4.73;;
1682;SDS011;13252;53.596;10.060;2023-02-01T09:51:34;29.47;;;5.03;;
1682;SDS011;13252;53.596;10.060;2023-02-01T09:54:08;24.03;;;4.53;;
1682;SDS011;13252;53.596;10.060;2023-02-01T09:56:40;27.87;;;5.77;;
1682;SDS011;13252;53.596;10.060;2023-02-01T09:59:21;45.30;;;5.83;;
1682;SDS011;13252;53.596;10.060;2023-02-01T10:01:54;30.07;;;5.80;;
1682;SDS011;13252;53.596;10.060;2023-02-01T10:04:23;28.27;;;4.93;;
1682;SDS011;13252;53.596;10.060;2023-02-01T10:07:03;29.80;;;4.70;;
1682;SDS011;13252;53.596;10.060;2023-02-01T10:09:46;22.40;;;4.67;;
1682;SDS011;13252;53.596;10.060;2023-02-01T10:12:33;25.77;;;4.53;;
1682;SDS011;13252;53.596;10.060;2023-02-01T10:15:14;31.23;;;4.63;;
1682;SDS011;13252;53.596;10.060;2023-02-01T10:17:52;31.10;;;5.67;;
1682;SDS011;13252;53.596;10.060;2023-02-01T10:20:29;33.03;;;4.87;;
1682;SDS011;13252;53.596;10.060;2023-02-01T10:23:04;26.73;;;5.83;;
1682;SDS011;13252;53.596;10.060;2023-02-01T10:25:59;35.40;;;5.43;;
1682;SDS011;13252;53.596;10.060;2023-02-01T10:28:29;20.30;;;3.13;;
1682;SDS011;13252;53.596;10.060;2023-02-01T10:30:59;29.90;;;4.33;;
1682;SDS011;13252;53.596;10.060;2023-02-01T10:33:30;18.13;;;4.07;;
1682;SDS011;13252;53.596;10.060;2023-02-01T10:36:04;26.27;;;5.07;;
1682;SDS011;13252;53.596;10.060;2023-02-01T10:38:36;22.00;;;3.77;;
1682;SDS011;13252;53.596;10.060;2023-02-01T10:41:07;31.53;;;5.37;;
1682;SDS011;13252;53.596;10.060;2023-02-01T10:43:40;27.43;;;5.13;;
1682;SDS011;13252;53.596;10.060;2023-02-01T10:46:08;19.27;;;4.07;;
1682;SDS011;13252;53.596;10.060;2023-02-01T10:48:37;30.07;;;5.00;;
1682;SDS011;13252;53.596;10.060;2023-02-01T10:51:10;27.13;;;3.90;;
1682;SDS011;13252;53.596;10.060;2023-02-01T10:53:42;22.23;;;3.50;;
1682;SDS011;13252;53.596;10.060;2023-02-01T10:56:13;19.87;;;4.87;;
1682;SDS011;13252;53.596;10.060;2023-02-01T10:58:45;24.00;;;4.70;;
1682;SDS011;13252;53.596;10.060;2023-02-01T11:01:16;26.70;;;4.73;;
1682;SDS011;13252;53.596;10.060;2023-02-01T11:03:50;27.30;;;4.40;;
1682;SDS011;13252;53.596;10.060;2023-02-01T11:06:26;22.60;;;4.30;;
1682;SDS011;13252;53.596;10.060;2023-02-01T11:08:56;29.20;;;4.87;;
1682;SDS011;13252;53.596;10.060;2023-02-01T11:11:25;24.77;;;4.97;;
1682;SDS011;13252;53.596;10.060;2023-02-01T11:13:55;20.07;;;3.80;;
1682;SDS011;13252;53.596;10.060;2023-02-01T11:16:29;20.70;;;3.60;;
1682;SDS011;13252;53.596;10.060;2023-02-01T11:19:00;34.17;;;4.83;;
1682;SDS011;13252;53.596;10.060;2023-02-01T11:21:29;20.10;;;3.73;;
1682;SDS011;13252;53.596;10.060;2023-02-01T11:24:00;17.47;;;3.10;;
1682;SDS011;13252;53.596;10.060;2023-02-01T11:26:29;17.50;;;3.73;;
1682;SDS011;13252;53.596;10.060;2023-02-01T11:29:01;20.60;;;4.67;;
1682;SDS011;13252;53.596;10.060;2023-02-01T11:31:30;25.80;;;4.20;;
1682;SDS011;13252;53.596;10.060;2023-02-01T11:34:04;28.00;;;5.40;;
1682;SDS011;13252;53.596;10.060;2023-02-01T11:36:36;34.97;;;6.17;;
1682;SDS011;13252;53.596;10.060;2023-02-01T11:39:08;24.07;;;4.87;;
1682;SDS011;13252;53.596;10.060;2023-02-01T11:41:56;22.17;;;4.30;;
1682;SDS011;13252;53.596;10.060;2023-02-01T11:44:34;36.30;;;7.47;;
1682;SDS011;13252;53.596;10.060;2023-02-01T11:47:19;16.77;;;3.67;;
1682;SDS011;13252;53.596;10.060;2023-02-01T11:49:49;22.73;;;4.00;;
1682;SDS011;13252;53.596;10.060;2023-02-01T11:52:24;27.23;;;4.63;;
1682;SDS011;13252;53.596;10.060;2023-02-01T11:55:04;29.53;;;4.90;;
1682;SDS011;13252;53.596;10.060;2023-02-01T11:57:56;21.33;;;3.50;;
1682;SDS011;13252;53.596;10.060;2023-02-01T12:00:43;32.77;;;4.40;;
1682;SDS011;13252;53.596;10.060;2023-02-01T12:06:18;27.87;;;4.40;;
1682;SDS011;13252;53.596;10.060;2023-02-01T12:09:00;15.07;;;3.37;;
1682;SDS011;13252;53.596;10.060;2023-02-01T12:11:40;21.73;;;3.90;;
1682;SDS011;13252;53.596;10.060;2023-02-01T12:14:19;13.13;;;3.13;;
1682;SDS011;13252;53.596;10.060;2023-02-01T12:16:55;8.40;;;2.40;;
1682;SDS011;13252;53.596;10.060;2023-02-01T12:19:36;17.40;;;3.20;;
1682;SDS011;13252;53.596;10.060;2023-02-01T12:22:14;12.33;;;2.43;;
1682;SDS011;13252;53.596;10.060;2023-02-01T12:25:04;17.07;;;2.97;;
1682;SDS011;13252;53.596;10.060;2023-02-01T12:27:42;12.60;;;2.77;;
1682;SDS011;13252;53.596;10.060;2023-02-01T12:30:20;13.30;;;3.13;;
1682;SDS011;13252;53.596;10.060;2023-02-01T12:33:03;16.93;;;3.17;;
1682;SDS011;13252;53.596;10.060;2023-02-01T12:35:49;10.40;;;2.23;;
1682;SDS011;13252;53.596;10.060;2023-02-01T12:38:35;14.00;;;2.73;;
1682;SDS011;13252;53.596;10.060;2023-02-01T12:41:13;8.83;;;2.10;;
1682;SDS011;13252;53.596;10.060;2023-02-01T12:43:59;7.50;;;1.83;;
1682;SDS011;13252;53.596;10.060;2023-02-01T12:46:33;10.07;;;1.57;;
1682;SDS011;13252;53.596;10.060;2023-02-01T12:49:05;9.33;;;1.53;;
1682;SDS011;13252;53.596;10.060;2023-02-01T12:51:36;6.40;;;1.30;;
1682;SDS011;13252;53.596;10.060;2023-02-01T12:54:06;7.10;;;1.20;;
1682;SDS011;13252;53.596;10.060;2023-02-01T12:56:42;4.33;;;0.87;;
1682;SDS011;13252;53.596;10.060;2023-02-01T12:59:13;5.17;;;1.07;;
1682;SDS011;13252;53.596;10.060;2023-02-01T13:01:48;4.33;;;0.93;;
1682;SDS011;13252;53.596;10.060;2023-02-01T13:04:25;4.63;;;1.50;;
1682;SDS011;13252;53.596;10.060;2023-02-01T13:06:57;1.83;;;0.70;;
1682;SDS011;13252;53.596;10.060;2023-02-01T13:09:31;2.43;;;0.80;;
1682;SDS011;13252;53.596;10.060;2023-02-01T13:12:07;7.00;;;1.07;;
1682;SDS011;13252;53.596;10.060;2023-02-01T13:14:40;2.60;;;1.03;;
1682;SDS011;13252;53.596;10.060;2023-02-01T13:17:14;2.23;;;0.60;;
1682;SDS011;13252;53.596;10.060;2023-02-01T13:19:44;3.40;;;1.00;;
1682;SDS011;13252;53.596;10.060;2023-02-01T13:22:17;3.43;;;0.90;;
1682;SDS011;13252;53.596;10.060;2023-02-01T13:24:48;2.57;;;1.00;;
1682;SDS011;13252;53.596;10.060;2023-02-01T13:27:21;2.97;;;0.97;;
1682;SDS011;13252;53.596;10.060;2023-02-01T13:29:53;3.57;;;0.90;;
1682;SDS011;13252;53.596;10.060;2023-02-01T13:32:30;2.90;;;1.00;;
1682;SDS011;13252;53.596;10.060;2023-02-01T13:35:42;3.33;;;0.80;;
1682;SDS011;13252;53.596;10.060;2023-02-01T13:41:14;2.60;;;0.90;;
1682;SDS011;13252;53.596;10.060;2023-02-01T13:43:52;7.13;;;1.33;;
1682;SDS011;13252;53.596;10.060;2023-02-01T13:46:22;7.87;;;1.30;;
1682;SDS011;13252;53.596;10.060;2023-02-01T13:48:51;3.80;;;0.83;;
1682;SDS011;13252;53.596;10.060;2023-02-01T13:51:30;3.40;;;0.80;;
1682;SDS011;13252;53.596;10.060;2023-02-01T13:54:01;5.87;;;1.57;;
1682;SDS011;13252;53.596;10.060;2023-02-01T13:56:29;6.77;;;1.20;;
1682;SDS011;13252;53.596;10.060;2023-02-01T14:02:42;6.53;;;1.37;;
1682;SDS011;13252;53.596;10.060;2023-02-01T14:08:38;3.73;;;1.07;;
1682;SDS011;13252;53.596;10.060;2023-02-01T14:23:09;4.07;;;1.00;;
1682;SDS011;13252;53.596;10.060;2023-02-01T14:25:40;3.37;;;1.03;;
1682;SDS011;13252;53.596;10.060;2023-02-01T14:28:12;5.33;;;1.23;;
1682;SDS011;13252;53.596;10.060;2023-02-01T14:30:49;6.17;;;1.10;;
1682;SDS011;13252;53.596;10.060;2023-02-01T14:33:18;6.10;;;1.70;;
1682;SDS011;13252;53.596;10.060;2023-02-01T14:36:02;5.33;;;1.30;;
1682;SDS011;13252;53.596;10.060;2023-02-01T14:41:11;8.80;;;1.53;;
1682;SDS011;13252;53.596;10.060;2023-02-01T14:43:50;10.97;;;2.13;;
1682;SDS011;13252;53.596;10.060;2023-02-01T14:46:19;12.77;;;2.30;;
1682;SDS011;13252;53.596;10.060;2023-02-01T14:49:28;8.63;;;1.70;;
1682;SDS011;13252;53.596;10.060;2023-02-01T14:51:58;12.27;;;2.73;;
1682;SDS011;13252;53.596;10.060;2023-02-01T14:54:27;7.73;;;1.70;;
1682;SDS011;13252;53.596;10.060;2023-02-01T14:56:56;14.13;;;1.70;;
1682;SDS011;13252;53.596;10.060;2023-02-01T14:59:25;6.60;;;1.60;;
1682;SDS011;13252;53.596;10.060;2023-02-01T15:01:59;7.47;;;2.27;;
1682;SDS011;13252;53.596;10.060;2023-02-01T15:04:28;8.23;;;1.77;;
1682;SDS011;13252;53.596;10.060;2023-02-01T15:07:11;13.20;;;1.80;;
1682;SDS011;13252;53.596;10.060;2023-02-01T15:09:42;13.20;;;3.13;;
1682;SDS011;13252;53.596;10.060;2023-02-01T15:12:15;11.50;;;1.70;;
1682;SDS011;13252;53.596;10.060;2023-02-01T15:14:47;6.30;;;2.33;;
1682;SDS011;13252;53.596;10.060;2023-02-01T15:17:17;15.83;;;3.93;;
1682;SDS011;13252;53.596;10.060;2023-02-01T15:19:52;22.73;;;2.50;;
1682;SDS011;13252;53.596;10.060;2023-02-01T15:22:22;18.80;;;3.87;;
1682;SDS011;13252;53.596;10.060;2023-02-01T15:24:52;16.17;;;4.50;;
1682;SDS011;13252;53.596;10.060;2023-02-01T15:27:21;16.80;;;5.57;;
1682;SDS011;13252;53.596;10.060;2023-02-01T15:29:49;26.30;;;8.67;;
1682;SDS011;13252;53.596;10.060;2023-02-01T15:32:30;23.83;;;6.67;;
1682;SDS011;13252;53.596;10.060;2023-02-01T15:35:00;30.83;;;6.70;;
1682;SDS011;13252;53.596;10.060;2023-02-01T15:37:30;17.00;;;5.20;;